Terminal Aerodrome Forecast
Issued by NWS Charleston, WV

Current Version | Previous Version | Graphics & Text | Print | Product List | Glossary On
Versions: 1 2 3 4 5 6 7 8 9 10 11 12 13 14 15 16 17 18 19 20 21 22 23 24 25 26 27 28 29
712
FTUS41 KRLX 162335
TAFEKN
TAF
KEKN 162335Z 1700/1724 00000KT P6SM OVC040
     FM170900 18004KT P6SM -SHRA OVC021
     FM171100 19004KT 2SM -SHRA OVC008
     FM171300 19005KT 3SM -SHRA OVC008
     FM171800 21009G15KT 3SM -SHRA OVC010
     FM172100 23010G17KT 4SM -SHRA OVC015=

USA.gov is the U.S. government's official web portal to all federal, state and local government web resources and services.